sensor_id;sensor_type;location;lat;lon;timestamp;pressure;altitude;pressure_sealevel;temperature;humidity
19890;BME280;10107;51.198;6.824;2022-08-19T00:02:53;-21820.69;;;19.32;84.57
19890;BME280;10107;51.198;6.824;2022-08-19T00:06:55;-21819.13;;;19.26;84.66
19890;BME280;10107;51.198;6.824;2022-08-19T00:10:57;-21817.94;;;19.21;84.98
19890;BME280;10107;51.198;6.824;2022-08-19T00:14:59;-21816.91;;;19.17;85.31
19890;BME280;10107;51.198;6.824;2022-08-19T00:19:03;-21815.97;;;19.13;85.46
19890;BME280;10107;51.198;6.824;2022-08-19T00:23:06;-21814.81;;;19.09;85.90
19890;BME280;10107;51.198;6.824;2022-08-19T00:27:08;-21813.50;;;19.04;86.12
19890;BME280;10107;51.198;6.824;2022-08-19T00:31:10;-21812.59;;;19.00;86.13
19890;BME280;10107;51.198;6.824;2022-08-19T00:35:13;-21811.81;;;18.97;86.15
19890;BME280;10107;51.198;6.824;2022-08-19T00:39:16;-21810.63;;;18.92;86.34
19890;BME280;10107;51.198;6.824;2022-08-19T00:43:20;-21810.09;;;18.90;86.63
19890;BME280;10107;51.198;6.824;2022-08-19T00:47:22;-21809.19;;;18.87;86.84
19890;BME280;10107;51.198;6.824;2022-08-19T00:51:27;-21808.00;;;18.82;86.99
19890;BME280;10107;51.198;6.824;2022-08-19T00:55:33;-21806.72;;;18.77;87.29
19890;BME280;10107;51.198;6.824;2022-08-19T00:59:36;-21805.53;;;18.72;87.42
19890;BME280;10107;51.198;6.824;2022-08-19T01:03:40;-21804.47;;;18.68;87.89
19890;BME280;10107;51.198;6.824;2022-08-19T01:07:44;-21803.84;;;18.66;88.21
19890;BME280;10107;51.198;6.824;2022-08-19T01:11:47;-21804.22;;;18.67;88.25
19890;BME280;10107;51.198;6.824;2022-08-19T01:15:52;-21803.69;;;18.65;87.99
19890;BME280;10107;51.198;6.824;2022-08-19T01:19:55;-21802.78;;;18.62;88.13
19890;BME280;10107;51.198;6.824;2022-08-19T01:23:58;-21802.25;;;18.59;88.12
19890;BME280;10107;51.198;6.824;2022-08-19T01:28:01;-21801.22;;;18.55;88.24
19890;BME280;10107;51.198;6.824;2022-08-19T01:32:03;-21800.31;;;18.52;88.50
19890;BME280;10107;51.198;6.824;2022-08-19T01:36:09;-21798.72;;;18.46;88.75
19890;BME280;10107;51.198;6.824;2022-08-19T01:40:14;-21797.03;;;18.39;89.25
19890;BME280;10107;51.198;6.824;2022-08-19T01:44:16;-21796.63;;;18.37;89.28
19890;BME280;10107;51.198;6.824;2022-08-19T01:48:20;-21795.72;;;18.34;89.57
19890;BME280;10107;51.198;6.824;2022-08-19T01:52:23;-21795.47;;;18.33;89.61
19890;BME280;10107;51.198;6.824;2022-08-19T01:56:26;-21794.94;;;18.31;89.79
19890;BME280;10107;51.198;6.824;2022-08-19T02:00:30;-21794.03;;;18.27;90.02
19890;BME280;10107;51.198;6.824;2022-08-19T02:04:32;-21792.84;;;18.23;90.17
19890;BME280;10107;51.198;6.824;2022-08-19T02:08:36;-21791.94;;;18.19;90.21
19890;BME280;10107;51.198;6.824;2022-08-19T02:12:40;-21790.38;;;18.13;90.91
19890;BME280;10107;51.198;6.824;2022-08-19T02:16:42;-21789.44;;;18.09;91.13
19890;BME280;10107;51.198;6.824;2022-08-19T02:20:44;-21788.66;;;18.06;91.20
19890;BME280;10107;51.198;6.824;2022-08-19T02:24:47;-21788.28;;;18.05;91.31
19890;BME280;10107;51.198;6.824;2022-08-19T02:28:50;-21788.28;;;18.05;91.27
19890;BME280;10107;51.198;6.824;2022-08-19T02:32:52;-21788.00;;;18.04;91.34
19890;BME280;10107;51.198;6.824;2022-08-19T02:36:54;-21786.84;;;17.99;91.69
19890;BME280;10107;51.198;6.824;2022-08-19T02:40:58;-21786.44;;;17.97;91.91
19890;BME280;10107;51.198;6.824;2022-08-19T02:45:02;-21785.91;;;17.95;92.08
19890;BME280;10107;51.198;6.824;2022-08-19T02:49:07;-21784.88;;;17.91;91.89
19890;BME280;10107;51.198;6.824;2022-08-19T02:53:09;-21784.47;;;17.90;91.62
19890;BME280;10107;51.198;6.824;2022-08-19T02:57:11;-21784.75;;;17.91;92.16
19890;BME280;10107;51.198;6.824;2022-08-19T03:01:21;-21785.41;;;17.93;92.28
19890;BME280;10107;51.198;6.824;2022-08-19T03:05:23;-21785.41;;;17.93;92.25
19890;BME280;10107;51.198;6.824;2022-08-19T03:09:25;-21785.13;;;17.92;92.19
19890;BME280;10107;51.198;6.824;2022-08-19T03:13:27;-21784.47;;;17.90;92.09
19890;BME280;10107;51.198;6.824;2022-08-19T03:17:31;-21783.44;;;17.86;91.98
19890;BME280;10107;51.198;6.824;2022-08-19T03:21:34;-21782.50;;;17.82;91.98
19890;BME280;10107;51.198;6.824;2022-08-19T03:25:37;-21781.59;;;17.78;92.16
19890;BME280;10107;51.198;6.824;2022-08-19T03:29:40;-21781.06;;;17.76;92.21
19890;BME280;10107;51.198;6.824;2022-08-19T03:33:44;-21779.91;;;17.72;92.50
19890;BME280;10107;51.198;6.824;2022-08-19T03:37:46;-21779.50;;;17.70;92.96
19890;BME280;10107;51.198;6.824;2022-08-19T03:41:49;-21779.25;;;17.69;93.05
19890;BME280;10107;51.198;6.824;2022-08-19T03:45:59;-21780.53;;;17.74;93.06
19890;BME280;10107;51.198;6.824;2022-08-19T03:50:04;-21780.81;;;17.75;93.13
19890;BME280;10107;51.198;6.824;2022-08-19T03:54:09;-21780.69;;;17.75;93.13
19890;BME280;10107;51.198;6.824;2022-08-19T03:58:12;-21780.69;;;17.75;93.03
19890;BME280;10107;51.198;6.824;2022-08-19T04:02:13;-21781.72;;;17.79;93.15
19890;BME280;10107;51.198;6.824;2022-08-19T04:06:19;-21783.16;;;17.85;92.67
19890;BME280;10107;51.198;6.824;2022-08-19T04:10:21;-21784.59;;;17.90;92.28
19890;BME280;10107;51.198;6.824;2022-08-19T04:14:26;-21785.66;;;17.94;92.16
19890;BME280;10107;51.198;6.824;2022-08-19T04:18:30;-21786.31;;;17.97;92.04
19890;BME280;10107;51.198;6.824;2022-08-19T04:22:34;-21786.31;;;17.97;91.90
19890;BME280;10107;51.198;6.824;2022-08-19T04:26:36;-21785.53;;;17.94;91.88
19890;BME280;10107;51.198;6.824;2022-08-19T04:30:41;-21784.34;;;17.89;91.93
19890;BME280;10107;51.198;6.824;2022-08-19T04:34:43;-21783.69;;;17.87;92.37
19890;BME280;10107;51.198;6.824;2022-08-19T04:38:47;-21783.31;;;17.85;92.44
19890;BME280;10107;51.198;6.824;2022-08-19T04:42:49;-21783.44;;;17.86;92.51
19890;BME280;10107;51.198;6.824;2022-08-19T04:46:50;-21784.47;;;17.90;92.33
19890;BME280;10107;51.198;6.824;2022-08-19T04:50:53;-21785.91;;;17.95;92.45
19890;BME280;10107;51.198;6.824;2022-08-19T04:54:59;-21788.00;;;18.04;92.45
19890;BME280;10107;51.198;6.824;2022-08-19T04:59:01;-21791.41;;;18.17;91.84
19890;BME280;10107;51.198;6.824;2022-08-19T05:03:04;-21795.06;;;18.31;91.44
19890;BME280;10107;51.198;6.824;2022-08-19T05:07:07;-21800.03;;;18.51;91.59
19890;BME280;10107;51.198;6.824;2022-08-19T05:11:12;-21804.88;;;18.70;91.21
19890;BME280;10107;51.198;6.824;2022-08-19T05:15:14;-21810.88;;;18.93;90.25
19890;BME280;10107;51.198;6.824;2022-08-19T05:19:16;-21816.50;;;19.15;89.32
19890;BME280;10107;51.198;6.824;2022-08-19T05:23:35;-21820.03;;;19.29;88.40
19890;BME280;10107;51.198;6.824;2022-08-19T05:27:39;-21823.28;;;19.42;87.99
19890;BME280;10107;51.198;6.824;2022-08-19T05:31:41;-21827.34;;;19.58;87.45
19890;BME280;10107;51.198;6.824;2022-08-19T05:35:43;-21833.72;;;19.83;85.81
19890;BME280;10107;51.198;6.824;2022-08-19T05:39:46;-21838.16;;;20.01;85.01
19890;BME280;10107;51.198;6.824;2022-08-19T05:43:50;-21841.94;;;20.15;84.64
19890;BME280;10107;51.198;6.824;2022-08-19T05:47:53;-21846.38;;;20.33;84.09
19890;BME280;10107;51.198;6.824;2022-08-19T05:51:55;-21857.06;;;20.75;82.29
19890;BME280;10107;51.198;6.824;2022-08-19T05:55:57;-21870.59;;;21.28;79.62
19890;BME280;10107;51.198;6.824;2022-08-19T06:00:00;-21883.97;;;21.81;77.32
19890;BME280;10107;51.198;6.824;2022-08-19T06:04:12;-21895.53;;;22.27;75.56
19890;BME280;10107;51.198;6.824;2022-08-19T06:08:15;-21905.78;;;22.67;73.51
19890;BME280;10107;51.198;6.824;2022-08-19T06:12:18;-21941.81;;;24.10;68.15
19890;BME280;10107;51.198;6.824;2022-08-19T06:16:22;-21955.53;;;24.64;65.00
19890;BME280;10107;51.198;6.824;2022-08-19T06:20:24;-21940.13;;;24.03;66.66
19890;BME280;10107;51.198;6.824;2022-08-19T06:24:27;-21919.81;;;23.23;69.39
19890;BME280;10107;51.198;6.824;2022-08-19T06:28:29;-21906.31;;;22.69;71.81
19890;BME280;10107;51.198;6.824;2022-08-19T06:32:34;-21898.53;;;22.39;73.11
19890;BME280;10107;51.198;6.824;2022-08-19T06:36:39;-21893.59;;;22.19;74.21
19890;BME280;10107;51.198;6.824;2022-08-19T06:40:42;-21892.56;;;22.15;74.25
19890;BME280;10107;51.198;6.824;2022-08-19T06:44:46;-21898.41;;;22.38;73.33
19890;BME280;10107;51.198;6.824;2022-08-19T06:48:51;-21901.00;;;22.48;72.61
19890;BME280;10107;51.198;6.824;2022-08-19T06:52:53;-21901.91;;;22.52;72.00
19890;BME280;10107;51.198;6.824;2022-08-19T06:56:55;-21902.16;;;22.53;72.34
19890;BME280;10107;51.198;6.824;2022-08-19T07:00:59;-21905.94;;;22.68;71.68
19890;BME280;10107;51.198;6.824;2022-08-19T07:05:04;-21907.47;;;22.74;71.42
19890;BME280;10107;51.198;6.824;2022-08-19T07:09:07;-21925.25;;;23.44;69.20
19890;BME280;10107;51.198;6.824;2022-08-19T07:13:10;-21952.94;;;24.54;64.43
19890;BME280;10107;51.198;6.824;2022-08-19T07:17:12;-21958.13;;;24.75;63.76
19890;BME280;10107;51.198;6.824;2022-08-19T07:21:18;-21946.47;;;24.28;64.88
19890;BME280;10107;51.198;6.824;2022-08-19T07:25:21;-21935.59;;;23.85;66.25
19890;BME280;10107;51.198;6.824;2022-08-19T07:29:23;-21940.25;;;24.04;65.77
19890;BME280;10107;51.198;6.824;2022-08-19T07:33:25;-21932.63;;;23.73;66.79
19890;BME280;10107;51.198;6.824;2022-08-19T07:37:28;-21915.13;;;23.04;68.97
19890;BME280;10107;51.198;6.824;2022-08-19T07:41:30;-21919.53;;;23.22;68.41
19890;BME280;10107;51.198;6.824;2022-08-19T07:45:32;-21942.97;;;24.15;66.22
19890;BME280;10107;51.198;6.824;2022-08-19T07:49:34;-21986.25;;;25.86;59.94
19890;BME280;10107;51.198;6.824;2022-08-19T07:53:37;-22018.97;;;27.17;56.34
19890;BME280;10107;51.198;6.824;2022-08-19T07:57:39;-22088.88;;;29.96;47.36
19890;BME280;10107;51.198;6.824;2022-08-19T08:01:41;-22118.63;;;31.16;43.45
19890;BME280;10107;51.198;6.824;2022-08-19T08:05:43;-22136.09;;;31.86;42.06
19890;BME280;10107;51.198;6.824;2022-08-19T08:10:06;-22121.56;;;31.28;44.88
19890;BME280;10107;51.198;6.824;2022-08-19T08:14:08;-22116.97;;;31.09;44.09
19890;BME280;10107;51.198;6.824;2022-08-19T08:18:11;-22110.97;;;30.85;44.60
19890;BME280;10107;51.198;6.824;2022-08-19T08:22:15;-22126.41;;;31.47;42.85
19890;BME280;10107;51.198;6.824;2022-08-19T08:26:46;-22110.22;;;30.82;44.22
19890;BME280;10107;51.198;6.824;2022-08-19T08:30:48;-22086.69;;;29.88;45.91
19890;BME280;10107;51.198;6.824;2022-08-19T08:34:50;-22065.69;;;29.03;48.89
19890;BME280;10107;51.198;6.824;2022-08-19T08:38:54;-22093.88;;;30.16;46.70
19890;BME280;10107;51.198;6.824;2022-08-19T08:43:06;-22116.84;;;31.09;43.09
19890;BME280;10107;51.198;6.824;2022-08-19T08:47:12;-22134.31;;;31.79;42.06
19890;BME280;10107;51.198;6.824;2022-08-19T08:51:20;-22155.97;;;32.66;40.52
19890;BME280;10107;51.198;6.824;2022-08-19T08:55:26;-22151.88;;;32.50;40.06
19890;BME280;10107;51.198;6.824;2022-08-19T08:59:33;-22151.50;;;32.48;40.20
19890;BME280;10107;51.198;6.824;2022-08-19T09:03:41;-22129.47;;;31.60;41.05
19890;BME280;10107;51.198;6.824;2022-08-19T09:07:49;-22101.78;;;30.48;43.09
19890;BME280;10107;51.198;6.824;2022-08-19T09:12:02;-22090.66;;;30.04;43.80
19890;BME280;10107;51.198;6.824;2022-08-19T09:16:10;-22091.69;;;30.08;43.44
19890;BME280;10107;51.198;6.824;2022-08-19T09:20:18;-22104.47;;;30.59;42.75
19890;BME280;10107;51.198;6.824;2022-08-19T09:24:20;-22123.88;;;31.37;40.64
19890;BME280;10107;51.198;6.824;2022-08-19T09:28:21;-22155.06;;;32.63;37.62
19890;BME280;10107;51.198;6.824;2022-08-19T09:32:25;-22180.75;;;33.66;34.59
19890;BME280;10107;51.198;6.824;2022-08-19T09:36:27;-22211.91;;;34.93;33.05
19890;BME280;10107;51.198;6.824;2022-08-19T09:40:33;-22213.69;;;35.00;31.65
19890;BME280;10107;51.198;6.824;2022-08-19T09:44:35;-22203.81;;;34.60;32.90
19890;BME280;10107;51.198;6.824;2022-08-19T09:48:38;-22194.56;;;34.22;33.75
19890;BME280;10107;51.198;6.824;2022-08-19T09:52:41;-22198.25;;;34.37;33.35
19890;BME280;10107;51.198;6.824;2022-08-19T09:56:43;-22212.53;;;34.95;32.45
19890;BME280;10107;51.198;6.824;2022-08-19T10:00:45;-22230.63;;;35.68;31.17
19890;BME280;10107;51.198;6.824;2022-08-19T10:04:48;-22249.31;;;36.44;30.73
19890;BME280;10107;51.198;6.824;2022-08-19T10:09:08;-22278.91;;;37.65;27.89
19890;BME280;10107;51.198;6.824;2022-08-19T10:13:11;-22282.94;;;37.81;28.11
19890;BME280;10107;51.198;6.824;2022-08-19T10:17:14;-22302.03;;;38.59;26.46
19890;BME280;10107;51.198;6.824;2022-08-19T10:21:19;-22305.44;;;38.73;27.07
19890;BME280;10107;51.198;6.824;2022-08-19T10:25:21;-22248.56;;;36.41;29.13
19890;BME280;10107;51.198;6.824;2022-08-19T10:29:23;-22216.34;;;35.10;31.30
19890;BME280;10107;51.198;6.824;2022-08-19T10:33:25;-22207.63;;;34.75;31.82
19890;BME280;10107;51.198;6.824;2022-08-19T10:37:29;-22258.78;;;36.83;29.85
19890;BME280;10107;51.198;6.824;2022-08-19T10:41:34;-22238.47;;;36.00;30.52
19890;BME280;10107;51.198;6.824;2022-08-19T10:45:36;-22203.81;;;34.60;32.26
19890;BME280;10107;51.198;6.824;2022-08-19T10:49:38;-22176.41;;;33.49;34.13
19890;BME280;10107;51.198;6.824;2022-08-19T10:54:01;-22150.50;;;32.44;34.91
19890;BME280;10107;51.198;6.824;2022-08-19T10:58:09;-22184.28;;;33.81;33.93
19890;BME280;10107;51.198;6.824;2022-08-19T11:02:12;-22234.53;;;35.84;30.03
19890;BME280;10107;51.198;6.824;2022-08-19T11:06:13;-22257.50;;;36.78;28.62
19890;BME280;10107;51.198;6.824;2022-08-19T11:10:17;-22256.38;;;36.73;28.01
19890;BME280;10107;51.198;6.824;2022-08-19T11:14:20;-22249.81;;;36.46;28.45
19890;BME280;10107;51.198;6.824;2022-08-19T11:18:22;-22255.88;;;36.71;28.63
19890;BME280;10107;51.198;6.824;2022-08-19T11:22:24;-22273.00;;;37.41;27.92
19890;BME280;10107;51.198;6.824;2022-08-19T11:26:28;-22305.94;;;38.75;26.32
19890;BME280;10107;51.198;6.824;2022-08-19T11:30:30;-22320.59;;;39.35;25.09
19890;BME280;10107;51.198;6.824;2022-08-19T11:34:33;-22270.09;;;37.29;27.41
19890;BME280;10107;51.198;6.824;2022-08-19T11:38:36;-22290.59;;;38.13;26.41
19890;BME280;10107;51.198;6.824;2022-08-19T11:42:39;-22301.91;;;38.59;25.29
19890;BME280;10107;51.198;6.824;2022-08-19T11:46:56;-22331.63;;;39.80;24.73
19890;BME280;10107;51.198;6.824;2022-08-19T11:51:04;-22343.00;;;40.27;23.53
19890;BME280;10107;51.198;6.824;2022-08-19T11:55:08;-22347.38;;;40.45;23.29
19890;BME280;10107;51.198;6.824;2022-08-19T11:59:11;-22344.38;;;40.33;22.84
19890;BME280;10107;51.198;6.824;2022-08-19T12:03:14;-22349.88;;;40.55;22.33
19890;BME280;10107;51.198;6.824;2022-08-19T12:07:16;-22334.25;;;39.91;21.89
19890;BME280;10107;51.198;6.824;2022-08-19T12:11:18;-22303.91;;;38.67;24.03
19890;BME280;10107;51.198;6.824;2022-08-19T12:15:21;-22324.50;;;39.51;23.24
19890;BME280;10107;51.198;6.824;2022-08-19T12:19:24;-22340.50;;;40.17;23.19
19890;BME280;10107;51.198;6.824;2022-08-19T12:23:26;-22332.88;;;39.86;22.70
19890;BME280;10107;51.198;6.824;2022-08-19T12:27:28;-22330.50;;;39.76;23.93
19890;BME280;10107;51.198;6.824;2022-08-19T12:31:31;-22337.38;;;40.04;22.93
19890;BME280;10107;51.198;6.824;2022-08-19T12:35:34;-22320.22;;;39.34;23.39
19890;BME280;10107;51.198;6.824;2022-08-19T12:39:38;-22315.09;;;39.13;22.47
19890;BME280;10107;51.198;6.824;2022-08-19T12:43:40;-22310.19;;;38.93;23.86
19890;BME280;10107;51.198;6.824;2022-08-19T12:47:44;-22304.16;;;38.68;23.34
19890;BME280;10107;51.198;6.824;2022-08-19T12:51:46;-22305.56;;;38.74;23.94
19890;BME280;10107;51.198;6.824;2022-08-19T12:55:54;-22297.53;;;38.41;24.30
19890;BME280;10107;51.198;6.824;2022-08-19T12:59:57;-22293.38;;;38.24;24.33
19890;BME280;10107;51.198;6.824;2022-08-19T13:04:00;-22253.97;;;36.63;25.88
19890;BME280;10107;51.198;6.824;2022-08-19T13:08:02;-22245.41;;;36.28;26.34
19890;BME280;10107;51.198;6.824;2022-08-19T13:12:05;-22214.81;;;35.04;27.89
19890;BME280;10107;51.198;6.824;2022-08-19T13:16:09;-22185.56;;;33.86;29.66
19890;BME280;10107;51.198;6.824;2022-08-19T13:20:12;-22167.16;;;33.11;30.53
19890;BME280;10107;51.198;6.824;2022-08-19T13:24:14;-22156.84;;;32.70;31.13
19890;BME280;10107;51.198;6.824;2022-08-19T13:28:16;-22143.09;;;32.14;32.10
19890;BME280;10107;51.198;6.824;2022-08-19T13:32:18;-22145.53;;;32.24;32.21
19890;BME280;10107;51.198;6.824;2022-08-19T13:36:39;-22156.84;;;32.70;30.88
19890;BME280;10107;51.198;6.824;2022-08-19T13:40:41;-22163.22;;;32.95;30.35
19890;BME280;10107;51.198;6.824;2022-08-19T13:44:43;-22167.28;;;33.12;29.17
19890;BME280;10107;51.198;6.824;2022-08-19T13:48:48;-22171.09;;;33.27;28.52
19890;BME280;10107;51.198;6.824;2022-08-19T13:52:51;-22173.38;;;33.37;29.02
19890;BME280;10107;51.198;6.824;2022-08-19T13:56:53;-22167.91;;;33.14;29.53
19890;BME280;10107;51.198;6.824;2022-08-19T14:00:55;-22152.16;;;32.51;30.43
19890;BME280;10107;51.198;6.824;2022-08-19T14:04:58;-22145.41;;;32.24;30.87
19890;BME280;10107;51.198;6.824;2022-08-19T14:09:01;-22128.22;;;31.54;32.01
19890;BME280;10107;51.198;6.824;2022-08-19T14:13:04;-22128.09;;;31.54;32.39
19890;BME280;10107;51.198;6.824;2022-08-19T14:17:06;-22132.03;;;31.70;31.44
19890;BME280;10107;51.198;6.824;2022-08-19T14:21:14;-22128.09;;;31.54;31.18
19890;BME280;10107;51.198;6.824;2022-08-19T14:25:21;-22129.59;;;31.60;31.26
19890;BME280;10107;51.198;6.824;2022-08-19T14:29:23;-22126.69;;;31.48;30.94
19890;BME280;10107;51.198;6.824;2022-08-19T14:33:26;-22128.22;;;31.54;30.27
19890;BME280;10107;51.198;6.824;2022-08-19T14:37:28;-22124.25;;;31.38;30.86
19890;BME280;10107;51.198;6.824;2022-08-19T14:41:31;-22111.50;;;30.87;31.23
19890;BME280;10107;51.198;6.824;2022-08-19T14:45:38;-22100.75;;;30.44;32.10
19890;BME280;10107;51.198;6.824;2022-08-19T14:49:41;-22105.09;;;30.62;32.90
19890;BME280;10107;51.198;6.824;2022-08-19T14:53:43;-22110.47;;;30.83;32.20
19890;BME280;10107;51.198;6.824;2022-08-19T14:57:46;-22095.66;;;30.24;33.96
19890;BME280;10107;51.198;6.824;2022-08-19T15:01:48;-22083.50;;;29.75;35.08
19890;BME280;10107;51.198;6.824;2022-08-19T15:05:49;-22070.69;;;29.23;35.60
19890;BME280;10107;51.198;6.824;2022-08-19T15:09:51;-22062.13;;;28.89;36.45
19890;BME280;10107;51.198;6.824;2022-08-19T15:13:55;-22057.50;;;28.71;37.11
19890;BME280;10107;51.198;6.824;2022-08-19T15:17:57;-22063.41;;;28.94;36.47
19890;BME280;10107;51.198;6.824;2022-08-19T15:22:02;-22067.50;;;29.11;36.59
19890;BME280;10107;51.198;6.824;2022-08-19T15:26:04;-22069.81;;;29.20;36.26
19890;BME280;10107;51.198;6.824;2022-08-19T15:30:19;-22071.47;;;29.27;36.20
19890;BME280;10107;51.198;6.824;2022-08-19T15:34:21;-22066.09;;;29.05;37.13
19890;BME280;10107;51.198;6.824;2022-08-19T15:38:23;-22055.06;;;28.61;37.97
19890;BME280;10107;51.198;6.824;2022-08-19T15:42:26;-22046.72;;;28.28;39.65
19890;BME280;10107;51.198;6.824;2022-08-19T15:46:32;-22047.88;;;28.32;39.56
19890;BME280;10107;51.198;6.824;2022-08-19T15:50:34;-22043.91;;;28.16;40.70
19890;BME280;10107;51.198;6.824;2022-08-19T15:54:36;-22034.25;;;27.78;41.27
19890;BME280;10107;51.198;6.824;2022-08-19T15:58:38;-22033.09;;;27.73;42.00
19890;BME280;10107;51.198;6.824;2022-08-19T16:02:58;-22035.56;;;27.83;41.73
19890;BME280;10107;51.198;6.824;2022-08-19T16:07:18;-22030.94;;;27.64;41.84
19890;BME280;10107;51.198;6.824;2022-08-19T16:11:21;-22030.16;;;27.61;42.65
19890;BME280;10107;51.198;6.824;2022-08-19T16:15:25;-22030.78;;;27.64;43.26
19890;BME280;10107;51.198;6.824;2022-08-19T16:19:31;-22033.09;;;27.73;43.78
19890;BME280;10107;51.198;6.824;2022-08-19T16:23:33;-22033.09;;;27.73;44.11
19890;BME280;10107;51.198;6.824;2022-08-19T16:27:35;-22028.22;;;27.54;44.89
19890;BME280;10107;51.198;6.824;2022-08-19T16:31:39;-22020.78;;;27.24;46.14
19890;BME280;10107;51.198;6.824;2022-08-19T16:35:42;-22014.22;;;26.98;47.20
19890;BME280;10107;51.198;6.824;2022-08-19T16:39:44;-22010.22;;;26.82;47.39
19890;BME280;10107;51.198;6.824;2022-08-19T16:43:46;-22008.94;;;26.77;48.00
19890;BME280;10107;51.198;6.824;2022-08-19T16:47:54;-22004.81;;;26.60;47.72
19890;BME280;10107;51.198;6.824;2022-08-19T16:51:58;-22000.03;;;26.41;47.85
19890;BME280;10107;51.198;6.824;2022-08-19T16:56:02;-21996.44;;;26.27;47.90
19890;BME280;10107;51.198;6.824;2022-08-19T17:00:06;-21994.75;;;26.20;48.32
19890;BME280;10107;51.198;6.824;2022-08-19T17:04:10;-21993.72;;;26.16;48.32
19890;BME280;10107;51.198;6.824;2022-08-19T17:08:15;-21992.44;;;26.11;48.84
19890;BME280;10107;51.198;6.824;2022-08-19T17:12:18;-21991.41;;;26.07;48.92
19890;BME280;10107;51.198;6.824;2022-08-19T17:16:22;-21992.69;;;26.12;48.89
19890;BME280;10107;51.198;6.824;2022-08-19T17:20:24;-21991.03;;;26.05;49.42
19890;BME280;10107;51.198;6.824;2022-08-19T17:24:28;-21991.78;;;26.08;49.62
19890;BME280;10107;51.198;6.824;2022-08-19T17:28:29;-21993.22;;;26.14;49.57
19890;BME280;10107;51.198;6.824;2022-08-19T17:32:31;-21992.81;;;26.13;49.84
19890;BME280;10107;51.198;6.824;2022-08-19T17:36:34;-21989.09;;;25.98;50.67
19890;BME280;10107;51.198;6.824;2022-08-19T17:40:38;-21983.94;;;25.77;51.45
19890;BME280;10107;51.198;6.824;2022-08-19T17:44:41;-21979.94;;;25.61;52.13
19890;BME280;10107;51.198;6.824;2022-08-19T17:48:43;-21975.81;;;25.45;53.07
19890;BME280;10107;51.198;6.824;2022-08-19T17:52:49;-21974.38;;;25.39;53.37
19890;BME280;10107;51.198;6.824;2022-08-19T17:56:53;-21974.25;;;25.39;53.65
19890;BME280;10107;51.198;6.824;2022-08-19T18:00:55;-21973.63;;;25.36;54.06
19890;BME280;10107;51.198;6.824;2022-08-19T18:05:03;-21970.38;;;25.23;56.21
19890;BME280;10107;51.198;6.824;2022-08-19T18:09:05;-21964.56;;;25.00;59.26
19890;BME280;10107;51.198;6.824;2022-08-19T18:13:09;-21956.56;;;24.68;61.34
19890;BME280;10107;51.198;6.824;2022-08-19T18:17:14;-21949.31;;;24.40;62.20
19890;BME280;10107;51.198;6.824;2022-08-19T18:21:19;-21945.19;;;24.23;63.28
19890;BME280;10107;51.198;6.824;2022-08-19T18:25:24;-21942.59;;;24.13;63.64
19890;BME280;10107;51.198;6.824;2022-08-19T18:29:27;-21939.09;;;23.99;64.20
19890;BME280;10107;51.198;6.824;2022-08-19T18:33:32;-21936.50;;;23.89;64.95
19890;BME280;10107;51.198;6.824;2022-08-19T18:37:35;-21936.38;;;23.88;65.23
19890;BME280;10107;51.198;6.824;2022-08-19T18:41:37;-21936.91;;;23.90;65.37
19890;BME280;10107;51.198;6.824;2022-08-19T18:45:57;-21936.00;;;23.87;65.40
19890;BME280;10107;51.198;6.824;2022-08-19T18:50:17;-21935.09;;;23.83;65.31
19890;BME280;10107;51.198;6.824;2022-08-19T18:54:19;-21934.56;;;23.81;65.41
19890;BME280;10107;51.198;6.824;2022-08-19T18:58:22;-21933.94;;;23.79;65.41
19890;BME280;10107;51.198;6.824;2022-08-19T19:02:25;-21932.63;;;23.73;65.69
19890;BME280;10107;51.198;6.824;2022-08-19T19:06:30;-21930.28;;;23.64;65.71
19890;BME280;10107;51.198;6.824;2022-08-19T19:10:35;-21927.84;;;23.55;65.75
19890;BME280;10107;51.198;6.824;2022-08-19T19:14:39;-21925.38;;;23.45;66.08
19890;BME280;10107;51.198;6.824;2022-08-19T19:18:43;-21923.44;;;23.37;66.52
19890;BME280;10107;51.198;6.824;2022-08-19T19:22:45;-21922.00;;;23.31;66.74
19890;BME280;10107;51.198;6.824;2022-08-19T19:26:47;-21921.09;;;23.28;66.22
19890;BME280;10107;51.198;6.824;2022-08-19T19:30:51;-21920.97;;;23.27;66.52
19890;BME280;10107;51.198;6.824;2022-08-19T19:34:55;-21920.72;;;23.26;66.70
19890;BME280;10107;51.198;6.824;2022-08-19T19:38:57;-21919.94;;;23.23;66.79
19890;BME280;10107;51.198;6.824;2022-08-19T19:42:59;-21919.28;;;23.21;67.11
19890;BME280;10107;51.198;6.824;2022-08-19T19:47:04;-21919.16;;;23.20;66.99
19890;BME280;10107;51.198;6.824;2022-08-19T19:51:08;-21917.59;;;23.14;67.70
19890;BME280;10107;51.198;6.824;2022-08-19T19:55:10;-21916.69;;;23.10;67.65
19890;BME280;10107;51.198;6.824;2022-08-19T19:59:17;-21915.53;;;23.06;67.91
19890;BME280;10107;51.198;6.824;2022-08-19T20:03:19;-21914.47;;;23.02;68.01
19890;BME280;10107;51.198;6.824;2022-08-19T20:07:23;-21913.06;;;22.96;68.32
19890;BME280;10107;51.198;6.824;2022-08-19T20:11:48;-21911.63;;;22.90;68.96
19890;BME280;10107;51.198;6.824;2022-08-19T20:15:51;-21910.34;;;22.85;69.25
19890;BME280;10107;51.198;6.824;2022-08-19T20:19:53;-21909.03;;;22.80;69.66
19890;BME280;10107;51.198;6.824;2022-08-19T20:23:58;-21908.38;;;22.78;69.95
19890;BME280;10107;51.198;6.824;2022-08-19T20:28:01;-21908.00;;;22.76;69.99
19890;BME280;10107;51.198;6.824;2022-08-19T20:32:05;-21907.75;;;22.75;69.99
19890;BME280;10107;51.198;6.824;2022-08-19T20:36:07;-21906.72;;;22.71;70.49
19890;BME280;10107;51.198;6.824;2022-08-19T20:40:12;-21906.56;;;22.70;70.53
19890;BME280;10107;51.198;6.824;2022-08-19T20:44:14;-21907.22;;;22.73;70.38
19890;BME280;10107;51.198;6.824;2022-08-19T20:48:16;-21905.78;;;22.67;70.49
19890;BME280;10107;51.198;6.824;2022-08-19T20:52:18;-21905.41;;;22.66;70.88
19890;BME280;10107;51.198;6.824;2022-08-19T20:56:21;-21903.34;;;22.58;72.77
19890;BME280;10107;51.198;6.824;2022-08-19T21:00:23;-21900.59;;;22.47;73.01
19890;BME280;10107;51.198;6.824;2022-08-19T21:04:25;-21898.78;;;22.40;73.77
19890;BME280;10107;51.198;6.824;2022-08-19T21:08:27;-21895.69;;;22.27;74.92
19890;BME280;10107;51.198;6.824;2022-08-19T21:12:31;-21893.06;;;22.17;75.44
19890;BME280;10107;51.198;6.824;2022-08-19T21:16:33;-21892.28;;;22.14;75.96